Time;durP1;ratioP1;P1;durP2;ratioP2;P2;SDS_P1;SDS_P2;PMS_P1;PMS_P2;Temp;Humidity;BMP_temperature;BMP_pressure;BME280_temperature;BME280_humidity;BME280_pressure;Samples;Min_cycle;Max_cycle;Signal;HPM_P1;HPM_P2
2021/01/11 00:01:42;;;;;;;48.77;32.17;;;2.10;99.90;;;;;;5094826;28;20210;-81
2021/01/11 00:04:09;;;;;;;48.77;33.10;;;2.00;99.90;;;;;;5094204;28;20629;-81
2021/01/11 00:06:37;;;;;;;52.83;33.93;;;2.10;99.90;;;;;;5098146;28;20197;-81
2021/01/11 00:09:03;;;;;;;50.93;31.57;;;2.00;99.90;;;;;;5094413;28;20199;-80
2021/01/11 00:11:32;;;;;;;54.17;33.47;;;2.10;99.90;;;;;;5094713;28;20202;-80
2021/01/11 00:13:59;;;;;;;56.80;35.40;;;2.60;99.90;;;;;;5094096;28;20205;-80
2021/01/11 00:16:26;;;;;;;56.93;36.40;;;2.20;99.90;;;;;;5106116;28;20213;-81
2021/01/11 00:18:52;;;;;;;60.40;36.23;;;2.10;99.90;;;;;;5110338;28;20649;-81
2021/01/11 00:21:19;;;;;;;50.83;33.97;;;2.10;99.90;;;;;;5094397;28;20206;-80
2021/01/11 00:23:45;;;;;;;50.33;32.53;;;2.10;99.90;;;;;;5093648;28;20228;-81
2021/01/11 00:26:12;;;;;;;49.47;32.10;;;2.10;99.90;;;;;;5094343;28;20204;-80
2021/01/11 00:28:40;;;;;;;48.93;32.07;;;2.10;99.90;;;;;;5093981;28;20239;-79
2021/01/11 00:31:07;;;;;;;46.83;30.27;;;2.10;99.90;;;;;;5100702;28;20284;-80
2021/01/11 00:33:34;;;;;;;48.13;30.83;;;2.10;99.90;;;;;;5101543;28;20650;-80
2021/01/11 00:36:02;;;;;;;45.93;30.77;;;2.20;99.90;;;;;;5113377;28;20238;-82
2021/01/11 00:38:28;;;;;;;42.30;29.77;;;2.10;99.90;;;;;;5103121;28;20281;-80
2021/01/11 00:40:55;;;;;;;42.67;28.57;;;2.10;99.90;;;;;;5093544;28;20198;-80
2021/01/11 00:43:21;;;;;;;43.37;28.73;;;2.10;99.90;;;;;;5103287;28;20300;-80
2021/01/11 00:45:48;;;;;;;44.47;30.03;;;2.10;99.90;;;;;;5099844;28;20568;-81
2021/01/11 00:48:15;;;;;;;43.03;29.57;;;2.10;99.90;;;;;;5106148;28;20722;-81
2021/01/11 00:50:41;;;;;;;40.03;27.50;;;2.70;99.90;;;;;;5093505;28;20213;-80
2021/01/11 00:53:08;;;;;;;39.20;27.57;;;2.10;99.90;;;;;;5113832;28;20204;-80
2021/01/11 00:55:34;;;;;;;44.60;29.17;;;2.10;99.90;;;;;;5102101;28;20198;-81
2021/01/11 00:58:00;;;;;;;38.60;26.83;;;2.10;99.90;;;;;;5112060;28;20194;-81
2021/01/11 01:00:27;;;;;;;39.27;26.67;;;2.10;99.90;;;;;;5113669;28;20212;-80
2021/01/11 01:02:53;;;;;;;43.87;28.13;;;2.10;99.90;;;;;;5113831;28;20201;-80
2021/01/11 01:05:21;;;;;;;39.87;27.13;;;2.10;99.90;;;;;;5105638;28;20259;-81
2021/01/11 01:07:47;;;;;;;36.23;26.60;;;2.20;99.90;;;;;;5093156;28;20289;-80
2021/01/11 01:10:14;;;;;;;42.33;27.40;;;2.20;99.90;;;;;;5095812;28;21086;-80
2021/01/11 01:12:41;;;;;;;38.53;26.40;;;2.20;99.90;;;;;;5114016;28;20289;-80
2021/01/11 01:15:09;;;;;;;41.37;27.80;;;2.30;99.90;;;;;;5113756;28;20284;-80
2021/01/11 01:17:35;;;;;;;43.57;28.67;;;2.20;99.90;;;;;;5113396;28;20289;-80
2021/01/11 01:20:02;;;;;;;38.00;25.40;;;2.20;99.90;;;;;;5100370;28;20259;-80
2021/01/11 01:22:29;;;;;;;40.97;26.87;;;2.20;99.90;;;;;;5093579;28;20598;-79
2021/01/11 01:24:55;;;;;;;39.43;26.87;;;2.20;99.90;;;;;;5093741;28;20229;-80
2021/01/11 01:27:22;;;;;;;41.37;27.20;;;2.20;99.90;;;;;;5110938;28;20224;-80
2021/01/11 01:29:48;;;;;;;41.10;27.73;;;2.30;99.90;;;;;;5113791;28;20623;-80
2021/01/11 01:32:14;;;;;;;42.67;28.03;;;2.30;99.90;;;;;;5097574;28;20241;-81
2021/01/11 01:34:41;;;;;;;40.83;27.07;;;2.20;99.90;;;;;;5093456;28;20198;-80
2021/01/11 01:37:07;;;;;;;40.20;26.23;;;2.30;99.90;;;;;;5111172;28;20270;-80
2021/01/11 01:39:35;;;;;;;40.13;28.40;;;2.30;99.90;;;;;;5097675;28;20204;-80
2021/01/11 01:42:01;;;;;;;39.60;28.07;;;2.30;99.90;;;;;;5097425;28;20214;-80
2021/01/11 01:44:27;;;;;;;42.00;28.83;;;2.30;99.90;;;;;;5111241;28;20218;-80
2021/01/11 01:46:54;;;;;;;42.07;26.83;;;2.30;99.90;;;;;;5097407;28;20205;-80
2021/01/11 01:49:20;;;;;;;40.37;27.73;;;2.30;99.90;;;;;;5097405;28;20227;-80
2021/01/11 01:51:47;;;;;;;48.27;30.13;;;2.30;99.90;;;;;;5097433;28;20209;-80
2021/01/11 01:54:14;;;;;;;40.40;26.17;;;2.30;99.90;;;;;;5097212;28;20220;-80
2021/01/11 01:56:41;;;;;;;43.57;27.70;;;2.30;99.90;;;;;;5096815;28;20201;-80
2021/01/11 01:59:08;;;;;;;42.10;27.97;;;2.30;99.90;;;;;;5110168;28;20674;-79
2021/01/11 02:01:35;;;;;;;41.33;27.23;;;2.30;99.90;;;;;;5097708;28;20606;-79
2021/01/11 02:04:02;;;;;;;45.97;28.47;;;2.40;99.90;;;;;;5096571;28;20588;-79
2021/01/11 02:06:35;;;;;;;43.10;27.57;;;2.40;99.90;;;;;;5096911;28;20201;-79
2021/01/11 02:09:06;;;;;;;40.23;27.33;;;2.50;99.90;;;;;;5096161;28;20331;-79
2021/01/11 02:11:41;;;;;;;37.93;25.73;;;2.50;99.90;;;;;;5097030;28;20198;-79
2021/01/11 02:14:27;;;;;;;40.77;27.77;;;2.50;99.90;;;;;;5096547;28;20292;-80
2021/01/11 02:16:58;;;;;;;39.80;27.33;;;2.40;99.90;;;;;;5111195;28;20219;-80
2021/01/11 02:19:56;;;;;;;36.73;27.03;;;2.50;99.90;;;;;;5096990;28;20288;-80
2021/01/11 02:22:28;;;;;;;39.27;27.43;;;2.50;99.90;;;;;;5096458;28;20190;-79
2021/01/11 02:25:31;;;;;;;34.93;27.07;;;2.60;99.90;;;;;;5096193;28;20553;-81
2021/01/11 02:27:59;;;;;;;38.93;25.47;;;2.60;99.90;;;;;;5096691;28;20194;-80
2021/01/11 02:30:30;;;;;;;40.67;27.60;;;2.60;99.90;;;;;;5096477;28;20210;-80
2021/01/11 02:33:00;;;;;;;40.87;26.57;;;2.60;99.90;;;;;;5103943;28;20212;-79
2021/01/11 02:35:29;;;;;;;38.47;27.70;;;2.60;99.90;;;;;;5116490;28;20258;-80
2021/01/11 02:37:57;;;;;;;39.13;27.13;;;2.60;99.90;;;;;;5116652;28;20225;-79
2021/01/11 02:40:23;;;;;;;38.13;28.57;;;3.30;99.90;;;;;;5116756;28;20596;-80
2021/01/11 02:42:49;;;;;;;37.60;26.50;;;2.60;99.90;;;;;;5111174;28;20202;-80
2021/01/11 02:45:16;;;;;;;36.37;26.23;;;2.60;99.90;;;;;;5095803;28;20754;-80
2021/01/11 02:47:56;;;;;;;37.17;25.60;;;2.70;99.90;;;;;;5095920;28;20208;-80
2021/01/11 02:50:25;;;;;;;37.43;25.50;;;2.70;99.90;;;;;;5096349;28;20657;-79
2021/01/11 02:53:05;;;;;;;34.00;25.17;;;3.40;99.90;;;;;;5109865;28;20202;-80
2021/01/11 02:55:40;;;;;;;33.77;26.20;;;2.70;99.90;;;;;;5096195;28;20265;-80
2021/01/11 02:58:13;;;;;;;39.13;26.77;;;2.70;99.90;;;;;;5114726;28;20280;-80
2021/01/11 03:00:44;;;;;;;35.30;25.73;;;2.80;99.90;;;;;;5104163;28;20226;-80
2021/01/11 03:03:16;;;;;;;35.90;25.70;;;2.70;99.90;;;;;;5100229;28;20194;-79
2021/01/11 03:05:43;;;;;;;35.43;26.67;;;2.70;99.90;;;;;;5104209;28;20204;-79
2021/01/11 03:08:09;;;;;;;36.23;25.63;;;2.70;99.90;;;;;;5113442;28;20224;-80
2021/01/11 03:10:36;;;;;;;32.07;23.87;;;2.70;99.90;;;;;;5115740;28;20216;-80
2021/01/11 03:13:02;;;;;;;35.17;25.70;;;2.70;99.90;;;;;;5104159;28;20210;-80
2021/01/11 03:15:29;;;;;;;36.73;26.00;;;2.70;99.90;;;;;;5095253;28;20210;-80
2021/01/11 03:17:55;;;;;;;36.73;27.17;;;2.80;99.90;;;;;;5095411;28;20646;-80
2021/01/11 03:20:22;;;;;;;34.10;26.20;;;2.70;99.90;;;;;;5095393;28;20220;-81
2021/01/11 03:22:49;;;;;;;35.17;25.30;;;2.80;99.90;;;;;;5103560;28;20227;-80
2021/01/11 03:25:15;;;;;;;37.13;25.47;;;2.70;99.90;;;;;;5100900;28;20222;-80
2021/01/11 03:27:41;;;;;;;33.07;24.37;;;2.70;99.90;;;;;;5095378;28;20204;-80
2021/01/11 03:30:09;;;;;;;37.83;26.23;;;2.70;99.90;;;;;;5108291;28;20284;-80
2021/01/11 03:32:35;;;;;;;35.03;25.30;;;2.70;99.90;;;;;;5100587;28;20652;-80
2021/01/11 03:35:01;;;;;;;37.17;25.70;;;2.80;99.90;;;;;;5115426;28;20204;-80
2021/01/11 03:37:29;;;;;;;35.33;24.57;;;2.80;99.90;;;;;;5101014;28;20604;-79
2021/01/11 03:39:55;;;;;;;32.87;25.87;;;2.70;99.90;;;;;;5115215;28;20652;-80
2021/01/11 03:42:22;;;;;;;35.43;25.20;;;2.70;99.90;;;;;;5114641;28;20221;-80
2021/01/11 03:44:49;;;;;;;31.73;23.13;;;2.80;99.90;;;;;;5114773;28;20764;-80
2021/01/11 03:47:15;;;;;;;37.27;24.47;;;2.80;99.90;;;;;;5096739;28;20553;-80
2021/01/11 03:49:41;;;;;;;34.67;24.23;;;2.80;99.90;;;;;;5115055;28;20209;-80
2021/01/11 03:52:10;;;;;;;30.97;23.93;;;2.80;99.90;;;;;;5105117;28;20206;-79
2021/01/11 03:54:38;;;;;;;34.13;25.10;;;2.80;99.90;;;;;;5094693;28;20237;-79
2021/01/11 03:57:04;;;;;;;32.70;23.83;;;2.90;99.90;;;;;;5096197;28;20202;-79
2021/01/11 03:59:33;;;;;;;30.73;23.87;;;2.80;99.90;;;;;;5114859;28;20213;-79
2021/01/11 04:02:00;;;;;;;30.53;22.87;;;2.80;99.90;;;;;;5100570;28;20229;-81
2021/01/11 04:04:26;;;;;;;31.60;22.80;;;2.80;99.90;;;;;;5094216;28;20214;-80
2021/01/11 04:06:54;;;;;;;30.23;22.20;;;2.80;99.90;;;;;;5106827;28;20201;-79
2021/01/11 04:09:20;;;;;;;30.37;22.73;;;2.90;99.90;;;;;;5100665;28;20198;-80
2021/01/11 04:11:48;;;;;;;29.67;23.43;;;2.90;99.90;;;;;;5114930;28;20288;-80
2021/01/11 04:14:14;;;;;;;32.23;23.03;;;2.80;99.90;;;;;;5111998;28;20206;-79
2021/01/11 04:16:41;;;;;;;35.10;25.67;;;2.80;99.90;;;;;;5094366;28;20360;-79
2021/01/11 04:19:08;;;;;;;34.90;24.17;;;2.90;99.90;;;;;;5094174;28;20198;-79
2021/01/11 04:21:34;;;;;;;34.03;23.73;;;2.80;99.90;;;;;;5093908;28;20331;-79
2021/01/11 04:24:01;;;;;;;31.47;23.73;;;2.80;99.90;;;;;;5093961;28;20318;-80
2021/01/11 04:26:27;;;;;;;35.10;24.90;;;2.80;99.90;;;;;;5093798;28;20665;-79
2021/01/11 04:28:54;;;;;;;31.70;24.30;;;2.80;99.90;;;;;;5104714;28;20542;-80
2021/01/11 04:31:21;;;;;;;32.63;24.90;;;2.80;99.90;;;;;;5100013;28;20201;-79
2021/01/11 04:33:48;;;;;;;29.97;22.43;;;2.80;99.90;;;;;;5104842;28;20202;-79
2021/01/11 04:36:14;;;;;;;30.60;22.47;;;2.80;99.90;;;;;;5108128;28;20563;-79
2021/01/11 04:38:40;;;;;;;28.37;22.40;;;2.90;99.90;;;;;;5093863;28;20616;-80
2021/01/11 04:41:07;;;;;;;29.07;22.90;;;2.80;99.90;;;;;;5093962;28;20332;-80
2021/01/11 04:43:40;;;;;;;27.77;21.50;;;2.90;99.90;;;;;;5107506;28;20210;-80
2021/01/11 04:46:07;;;;;;;29.07;21.80;;;2.90;99.90;;;;;;5106808;28;20201;-80
2021/01/11 04:48:34;;;;;;;29.40;21.23;;;3.30;99.90;;;;;;5099691;28;20197;-80
2021/01/11 04:51:02;;;;;;;32.87;22.97;;;2.70;99.90;;;;;;5103135;28;20210;-79
2021/01/11 04:53:28;;;;;;;27.80;21.43;;;2.80;99.90;;;;;;5108749;28;20197;-79
2021/01/11 04:55:55;;;;;;;26.50;20.87;;;2.80;99.90;;;;;;5093705;28;20236;-79
2021/01/11 04:58:22;;;;;;;28.93;21.77;;;2.90;99.90;;;;;;5093436;28;20206;-81
2021/01/11 05:00:49;;;;;;;30.57;20.67;;;2.90;99.90;;;;;;5113918;28;20204;-80
2021/01/11 05:03:16;;;;;;;30.13;22.27;;;2.90;99.90;;;;;;5100681;28;20331;-81
2021/01/11 05:05:44;;;;;;;29.63;21.13;;;2.80;99.90;;;;;;5112425;28;20246;-80
2021/01/11 05:08:10;;;;;;;29.27;20.87;;;3.00;99.90;;;;;;5102408;28;20198;-81
2021/01/11 05:10:38;;;;;;;26.03;19.27;;;2.90;99.90;;;;;;5095469;28;20193;-81
2021/01/11 05:13:06;;;;;;;26.83;20.00;;;2.90;99.90;;;;;;5103832;28;20653;-80
2021/01/11 05:15:34;;;;;;;28.27;20.50;;;2.90;99.90;;;;;;5109416;28;20280;-80
2021/01/11 05:18:01;;;;;;;24.87;19.47;;;2.90;99.90;;;;;;5113730;28;20284;-80
2021/01/11 05:20:31;;;;;;;23.80;20.00;;;2.90;99.90;;;;;;5098902;28;20285;-82
2021/01/11 05:23:07;;;;;;;26.57;19.43;;;2.90;99.90;;;;;;5093312;28;20607;-82
2021/01/11 05:25:37;;;;;;;23.87;18.27;;;2.90;99.90;;;;;;5107487;28;20213;-81
2021/01/11 05:28:14;;;;;;;25.97;19.03;;;3.00;99.90;;;;;;5093526;28;20235;-80
2021/01/11 05:30:42;;;;;;;24.87;19.77;;;2.90;99.90;;;;;;5093414;28;20277;-81
2021/01/11 05:33:09;;;;;;;27.13;19.97;;;2.90;99.90;;;;;;5113674;28;20241;-81
2021/01/11 05:35:37;;;;;;;24.80;18.50;;;3.70;99.90;;;;;;5113570;28;20284;-80
2021/01/11 05:38:15;;;;;;;27.97;20.93;;;2.90;99.90;;;;;;5093582;28;20198;-80
2021/01/11 05:40:42;;;;;;;23.63;18.93;;;2.90;99.90;;;;;;5105968;28;20212;-80
2021/01/11 05:43:08;;;;;;;25.37;19.30;;;2.90;99.90;;;;;;5108123;28;20196;-80
2021/01/11 05:45:36;;;;;;;28.63;20.93;;;2.90;99.90;;;;;;5104584;28;20289;-81
2021/01/11 05:48:05;;;;;;;25.20;19.47;;;2.80;99.90;;;;;;5095234;28;20289;-80
2021/01/11 05:50:34;;;;;;;28.27;20.83;;;2.90;99.90;;;;;;5103143;28;20209;-80
2021/01/11 05:53:01;;;;;;;26.57;20.17;;;2.90;99.90;;;;;;5096185;28;20198;-80
2021/01/11 05:55:29;;;;;;;25.27;19.90;;;2.90;99.90;;;;;;5097577;28;20197;-80
2021/01/11 05:58:00;;;;;;;26.27;20.10;;;2.80;99.90;;;;;;5113380;28;20284;-81
2021/01/11 06:00:29;;;;;;;25.77;20.07;;;2.90;99.90;;;;;;5109462;28;20205;-81
2021/01/11 06:02:56;;;;;;;27.20;20.73;;;2.90;99.90;;;;;;5092936;28;20205;-81
2021/01/11 06:05:23;;;;;;;26.90;20.57;;;2.90;99.90;;;;;;5094767;28;20229;-81
2021/01/11 06:07:50;;;;;;;26.73;19.97;;;3.00;99.90;;;;;;5104690;28;20206;-81
2021/01/11 06:10:19;;;;;;;28.17;20.70;;;2.90;99.90;;;;;;5107200;28;20664;-81
2021/01/11 06:12:46;;;;;;;27.47;21.30;;;2.80;99.90;;;;;;5092930;28;20285;-81
2021/01/11 06:15:14;;;;;;;29.17;21.90;;;2.90;99.90;;;;;;5106457;28;20209;-80
2021/01/11 06:17:42;;;;;;;26.40;19.90;;;2.90;99.90;;;;;;5093042;28;20625;-80
2021/01/11 06:20:13;;;;;;;28.40;21.03;;;2.90;99.90;;;;;;5092784;28;20203;-80
2021/01/11 06:23:05;;;;;;;26.57;21.13;;;2.90;99.90;;;;;;5109331;28;20194;-80
2021/01/11 06:25:36;;;;;;;31.17;22.20;;;2.90;99.90;;;;;;5096583;28;20221;-80
2021/01/11 06:28:05;;;;;;;29.90;20.93;;;2.90;99.90;;;;;;5096163;28;20251;-80
2021/01/11 06:30:36;;;;;;;30.60;21.47;;;3.00;99.90;;;;;;5096424;28;20244;-79
2021/01/11 06:33:06;;;;;;;28.40;20.43;;;2.90;99.90;;;;;;5101674;28;20200;-80
2021/01/11 06:35:33;;;;;;;27.83;21.63;;;2.80;99.90;;;;;;5116144;28;20201;-80
2021/01/11 06:38:24;;;;;;;28.73;20.97;;;2.90;99.90;;;;;;5097495;28;20190;-79
2021/01/11 06:40:54;;;;;;;28.10;21.07;;;2.90;99.90;;;;;;5107366;28;20335;-81
2021/01/11 06:43:22;;;;;;;29.13;20.97;;;2.80;99.90;;;;;;5095936;28;20220;-80
2021/01/11 06:45:50;;;;;;;29.47;21.57;;;2.90;99.90;;;;;;5109486;28;20567;-80
2021/01/11 06:48:18;;;;;;;26.93;19.27;;;3.00;99.90;;;;;;5110733;28;20197;-80
2021/01/11 06:50:46;;;;;;;29.03;21.13;;;2.90;99.90;;;;;;5107950;28;20288;-80
2021/01/11 06:53:13;;;;;;;32.23;20.57;;;3.00;99.90;;;;;;5101925;28;20281;-80
2021/01/11 06:55:40;;;;;;;28.47;21.73;;;3.00;99.90;;;;;;5116347;28;20288;-81
2021/01/11 06:58:07;;;;;;;26.87;19.70;;;3.00;99.90;;;;;;5104292;28;20245;-80
2021/01/11 07:00:39;;;;;;;27.93;20.03;;;2.90;99.90;;;;;;5114412;28;20652;-81
2021/01/11 07:03:07;;;;;;;30.37;21.43;;;2.90;99.90;;;;;;5104606;28;20619;-80
2021/01/11 07:05:50;;;;;;;28.17;21.10;;;3.00;99.90;;;;;;5109899;28;20225;-80
2021/01/11 07:08:21;;;;;;;27.57;20.90;;;3.00;99.90;;;;;;5108006;28;20202;-80
2021/01/11 07:10:50;;;;;;;29.50;21.70;;;3.00;99.90;;;;;;5096849;28;20202;-80
2021/01/11 07:13:27;;;;;;;29.67;22.57;;;3.10;99.90;;;;;;5106776;28;20632;-81
2021/01/11 07:16:16;;;;;;;31.23;22.00;;;3.00;99.90;;;;;;5096773;28;20208;-81
2021/01/11 07:18:51;;;;;;;32.10;22.00;;;2.90;99.90;;;;;;5089580;28;20202;-81
2021/01/11 07:21:20;;;;;;;30.03;21.07;;;2.90;99.90;;;;;;5096068;28;20213;-81
2021/01/11 07:23:47;;;;;;;27.70;20.07;;;2.90;99.90;;;;;;5095493;28;20286;-82
2021/01/11 07:26:15;;;;;;;28.63;20.30;;;3.00;99.90;;;;;;5109595;28;20202;-79
2021/01/11 07:28:50;;;;;;;26.70;20.07;;;3.00;99.90;;;;;;5095504;28;20214;-79
2021/01/11 07:31:28;;;;;;;27.17;19.73;;;2.90;99.90;;;;;;5109731;28;20663;-79
2021/01/11 07:34:06;;;;;;;26.63;19.90;;;2.90;99.90;;;;;;5094414;28;20206;-80
2021/01/11 07:36:35;;;;;;;28.83;21.37;;;3.00;99.90;;;;;;5095148;28;20247;-80
2021/01/11 07:39:24;;;;;;;28.40;20.37;;;2.90;99.90;;;;;;5108576;28;20276;-80
2021/01/11 07:41:51;;;;;;;27.40;19.27;;;3.00;99.90;;;;;;5099448;28;20217;-80
2021/01/11 07:44:21;;;;;;;28.20;20.17;;;2.90;99.90;;;;;;5100062;28;20228;-80
2021/01/11 07:46:59;;;;;;;29.80;20.77;;;2.90;99.90;;;;;;5094523;28;20214;-80
2021/01/11 07:49:27;;;;;;;25.60;19.37;;;3.10;99.90;;;;;;5095038;28;20206;-81
2021/01/11 07:51:54;;;;;;;27.33;19.47;;;3.00;99.90;;;;;;5094645;28;20217;-81
2021/01/11 07:54:22;;;;;;;26.63;18.97;;;3.00;99.90;;;;;;5107907;28;20564;-81
2021/01/11 07:56:50;;;;;;;27.27;18.90;;;3.10;99.90;;;;;;5098913;28;20202;-81
2021/01/11 07:59:19;;;;;;;27.30;19.53;;;3.10;99.90;;;;;;5094467;28;20637;-82
2021/01/11 08:01:48;;;;;;;27.80;18.70;;;3.00;99.90;;;;;;5094965;28;20201;-82
2021/01/11 08:04:15;;;;;;;29.13;19.30;;;3.10;99.90;;;;;;5108089;28;20224;-82
2021/01/11 08:06:52;;;;;;;33.03;20.07;;;3.00;99.90;;;;;;5094885;28;20206;-81
2021/01/11 08:09:22;;;;;;;30.57;20.17;;;3.10;99.90;;;;;;5101407;28;20250;-81
2021/01/11 08:11:48;;;;;;;28.13;19.00;;;3.10;99.90;;;;;;5101636;28;20214;-81
2021/01/11 08:14:15;;;;;;;27.93;19.43;;;3.20;99.90;;;;;;5094618;28;20244;-82
2021/01/11 08:16:44;;;;;;;26.43;19.33;;;3.20;99.90;;;;;;5106268;28;20227;-82
2021/01/11 08:19:12;;;;;;;29.07;20.03;;;3.20;99.90;;;;;;5096580;28;20654;-80
2021/01/11 08:21:40;;;;;;;33.17;20.57;;;3.30;99.90;;;;;;5104764;28;20205;-81
2021/01/11 08:24:07;;;;;;;30.63;20.70;;;3.30;99.90;;;;;;5097971;28;20300;-81
2021/01/11 08:26:50;;;;;;;32.43;22.13;;;3.30;99.90;;;;;;5094379;28;20233;-82
2021/01/11 08:29:17;;;;;;;30.27;20.40;;;3.30;99.90;;;;;;5094160;28;21552;-81
2021/01/11 08:31:44;;;;;;;30.40;21.60;;;3.30;99.90;;;;;;5103414;28;20205;-82
2021/01/11 08:34:12;;;;;;;31.20;21.03;;;3.30;99.90;;;;;;5098574;28;20728;-82
2021/01/11 08:36:39;;;;;;;31.97;21.73;;;3.30;99.90;;;;;;5093780;28;20206;-82
2021/01/11 08:39:08;;;;;;;31.97;21.30;;;3.30;99.90;;;;;;5094136;28;20209;-82
2021/01/11 08:41:37;;;;;;;36.40;22.43;;;3.30;99.90;;;;;;5093570;28;20202;-82
2021/01/11 08:44:04;;;;;;;30.43;20.80;;;3.30;99.90;;;;;;5106353;28;20229;-81
2021/01/11 08:46:58;;;;;;;33.23;21.80;;;3.40;99.90;;;;;;5109131;28;20396;-81
2021/01/11 08:49:26;;;;;;;31.63;21.37;;;3.30;99.90;;;;;;5108018;28;20288;-81
2021/01/11 08:51:53;;;;;;;29.40;20.70;;;3.40;99.90;;;;;;5100355;28;20752;-81
2021/01/11 08:54:27;;;;;;;32.67;20.60;;;3.40;99.90;;;;;;5100964;28;20229;-80
2021/01/11 08:56:55;;;;;;;30.30;20.40;;;3.40;99.90;;;;;;5093523;28;20205;-80
2021/01/11 08:59:21;;;;;;;29.67;20.33;;;3.40;99.90;;;;;;5093661;28;20208;-81
2021/01/11 09:01:47;;;;;;;27.00;19.20;;;3.60;99.90;;;;;;5093235;28;20547;-81
2021/01/11 09:04:34;;;;;;;30.50;20.83;;;3.60;99.90;;;;;;5093503;28;20249;-80
2021/01/11 09:07:02;;;;;;;27.10;18.83;;;3.60;99.90;;;;;;5108287;28;20314;-80
2021/01/11 09:09:30;;;;;;;30.50;21.13;;;3.60;99.90;;;;;;5093132;28;20259;-80
2021/01/11 09:12:02;;;;;;;27.83;19.37;;;3.70;99.90;;;;;;5107733;28;20236;-81
2021/01/11 09:14:30;;;;;;;24.53;18.60;;;3.70;99.90;;;;;;5106552;28;20241;-80
2021/01/11 09:17:00;;;;;;;25.53;18.60;;;3.70;99.90;;;;;;5093839;28;20206;-81
2021/01/11 09:19:27;;;;;;;26.23;19.03;;;3.90;99.90;;;;;;5099259;28;20204;-80
2021/01/11 09:22:05;;;;;;;29.00;18.93;;;3.70;99.90;;;;;;5113628;28;20590;-80
2021/01/11 09:24:33;;;;;;;28.97;19.10;;;3.60;99.90;;;;;;5099279;28;20209;-80
2021/01/11 09:27:00;;;;;;;25.90;18.17;;;3.70;99.90;;;;;;5113514;28;20413;-80
2021/01/11 09:29:27;;;;;;;27.63;19.17;;;3.60;99.90;;;;;;5098990;28;20261;-80
2021/01/11 09:31:53;;;;;;;29.90;19.13;;;3.60;99.90;;;;;;5103432;28;20293;-80
2021/01/11 09:34:20;;;;;;;25.07;17.93;;;3.70;99.90;;;;;;5095680;28;20209;-80
2021/01/11 09:36:47;;;;;;;26.07;18.40;;;3.80;99.90;;;;;;5104579;28;20198;-80
2021/01/11 09:39:15;;;;;;;26.87;19.53;;;3.80;99.90;;;;;;5107430;28;20206;-81
2021/01/11 09:41:44;;;;;;;26.77;18.43;;;3.80;99.90;;;;;;5100209;28;20205;-81
2021/01/11 09:44:10;;;;;;;29.17;18.60;;;3.80;99.90;;;;;;5113487;28;20583;-81
2021/01/11 09:46:43;;;;;;;26.23;18.70;;;3.90;99.90;;;;;;5099006;28;20193;-80
2021/01/11 09:49:10;;;;;;;26.13;18.67;;;4.00;99.90;;;;;;5113851;28;20193;-81
2021/01/11 09:51:36;;;;;;;25.60;17.90;;;4.00;99.90;;;;;;5113316;28;20560;-80
2021/01/11 09:54:03;;;;;;;27.20;17.93;;;4.00;99.90;;;;;;5108965;28;20190;-80
2021/01/11 09:56:30;;;;;;;28.57;18.10;;;4.30;99.90;;;;;;5100655;28;20206;-79
2021/01/11 09:58:56;;;;;;;24.03;17.37;;;4.30;99.90;;;;;;5116342;28;20293;-80
2021/01/11 10:01:23;;;;;;;25.37;18.07;;;4.20;99.90;;;;;;5117143;28;20649;-79
2021/01/11 10:03:49;;;;;;;22.30;16.33;;;4.20;99.90;;;;;;5102225;28;20289;-80
2021/01/11 10:06:16;;;;;;;20.47;16.30;;;4.10;99.90;;;;;;5117162;28;20288;-79
2021/01/11 10:08:43;;;;;;;23.90;17.03;;;4.10;99.90;;;;;;5116992;28;20253;-80
2021/01/11 10:11:14;;;;;;;20.17;16.37;;;4.20;99.90;;;;;;5116733;28;20707;-80
2021/01/11 10:13:42;;;;;;;22.13;16.63;;;4.30;99.90;;;;;;5116526;28;20700;-80
2021/01/11 10:16:08;;;;;;;23.47;16.43;;;4.20;99.90;;;;;;5110318;28;20216;-81
2021/01/11 10:18:35;;;;;;;21.60;15.87;;;4.20;99.90;;;;;;5109638;28;20205;-80
2021/01/11 10:21:01;;;;;;;21.27;16.73;;;4.20;99.90;;;;;;5116863;28;20280;-80
2021/01/11 10:23:29;;;;;;;18.57;14.83;;;4.60;99.90;;;;;;5116657;28;20200;-80
2021/01/11 10:25:55;;;;;;;20.60;16.80;;;4.20;99.90;;;;;;5113327;28;20218;-80
2021/01/11 10:28:23;;;;;;;20.67;16.40;;;4.20;99.90;;;;;;5105782;28;20204;-80
2021/01/11 10:30:50;;;;;;;20.13;15.67;;;4.20;99.90;;;;;;5116456;28;20288;-80
2021/01/11 10:33:16;;;;;;;22.57;16.37;;;4.20;99.90;;;;;;5116104;28;20284;-80
2021/01/11 10:35:43;;;;;;;21.20;16.23;;;4.20;99.90;;;;;;5116534;28;20720;-80
2021/01/11 10:38:09;;;;;;;22.93;15.80;;;4.30;99.90;;;;;;5116255;28;20335;-80
2021/01/11 10:40:35;;;;;;;20.07;16.60;;;4.30;99.90;;;;;;5116828;28;20194;-79
2021/01/11 10:43:02;;;;;;;19.20;15.47;;;4.30;99.90;;;;;;5102209;28;20258;-81
2021/01/11 10:45:29;;;;;;;22.20;15.87;;;4.30;99.90;;;;;;5116241;28;20225;-80
2021/01/11 10:47:56;;;;;;;20.43;15.37;;;4.40;99.90;;;;;;5116147;28;20319;-80
2021/01/11 10:50:23;;;;;;;20.97;17.40;;;4.40;99.90;;;;;;5115829;28;20284;-81
2021/01/11 10:52:49;;;;;;;20.40;15.30;;;4.40;99.90;;;;;;5115763;28;20564;-80
2021/01/11 10:55:16;;;;;;;24.87;16.80;;;4.40;99.90;;;;;;5113297;28;20326;-82
2021/01/11 10:57:42;;;;;;;22.00;16.97;;;4.40;99.90;;;;;;5095462;28;20286;-81
2021/01/11 11:00:12;;;;;;;24.00;17.70;;;4.50;99.90;;;;;;5110739;28;20205;-81
2021/01/11 11:02:38;;;;;;;25.37;16.63;;;4.50;99.90;;;;;;5108491;28;20267;-81
2021/01/11 11:05:07;;;;;;;22.60;16.97;;;4.50;99.90;;;;;;5109609;28;20354;-81
2021/01/11 11:07:35;;;;;;;23.30;17.17;;;4.50;99.90;;;;;;5100929;28;20197;-81
2021/01/11 11:10:04;;;;;;;25.80;17.13;;;4.50;99.90;;;;;;5102493;28;20645;-81
2021/01/11 11:12:31;;;;;;;22.90;16.80;;;4.50;99.90;;;;;;5109968;28;20244;-80
2021/01/11 11:14:59;;;;;;;23.57;15.83;;;4.50;99.90;;;;;;5095435;28;20210;-81
2021/01/11 11:17:28;;;;;;;20.97;17.37;;;4.50;99.90;;;;;;5109023;28;20205;-80
2021/01/11 11:19:54;;;;;;;22.53;17.07;;;4.50;99.90;;;;;;5095142;28;20728;-80
2021/01/11 11:22:22;;;;;;;23.30;17.70;;;4.50;99.90;;;;;;5109560;28;20237;-81
2021/01/11 11:24:48;;;;;;;22.60;17.20;;;4.60;99.90;;;;;;5095332;28;20233;-80
2021/01/11 11:27:14;;;;;;;25.07;18.97;;;4.60;99.90;;;;;;5109628;28;20198;-83
2021/01/11 11:29:41;;;;;;;22.20;16.97;;;4.60;99.90;;;;;;5095215;28;20198;-80
2021/01/11 11:32:07;;;;;;;22.40;18.27;;;4.60;99.90;;;;;;5107900;28;20229;-82
2021/01/11 11:34:34;;;;;;;22.07;16.43;;;4.70;99.90;;;;;;5111133;28;20216;-80
2021/01/11 11:37:00;;;;;;;19.60;16.07;;;4.70;99.90;;;;;;5105748;28;20230;-80
2021/01/11 11:39:28;;;;;;;20.80;15.47;;;4.70;99.90;;;;;;5098146;28;20205;-80
2021/01/11 11:41:58;;;;;;;22.60;15.63;;;4.70;99.90;;;;;;5094596;28;20292;-80
2021/01/11 11:44:25;;;;;;;21.40;16.37;;;4.80;99.90;;;;;;5108956;28;20316;-80
2021/01/11 11:46:52;;;;;;;20.90;15.50;;;4.80;99.90;;;;;;5094906;28;20248;-80
2021/01/11 11:49:18;;;;;;;23.13;16.73;;;4.80;99.90;;;;;;5109076;28;20740;-81
2021/01/11 11:51:45;;;;;;;23.93;16.63;;;4.90;99.90;;;;;;5115079;28;20218;-80
2021/01/11 11:54:11;;;;;;;22.30;16.63;;;5.00;99.90;;;;;;5106834;28;20324;-81
2021/01/11 11:56:42;;;;;;;22.77;16.83;;;5.00;99.90;;;;;;5094471;28;20733;-82
2021/01/11 11:59:09;;;;;;;23.57;17.00;;;5.00;99.90;;;;;;5107872;28;20685;-80
2021/01/11 12:01:37;;;;;;;20.93;16.20;;;5.00;99.90;;;;;;5107803;28;20247;-81
2021/01/11 12:04:04;;;;;;;24.00;17.20;;;5.00;99.90;;;;;;5109573;28;20226;-79
2021/01/11 12:06:38;;;;;;;23.27;17.57;;;4.90;99.90;;;;;;5106034;28;20209;-81
2021/01/11 12:09:05;;;;;;;22.50;17.47;;;5.10;99.90;;;;;;5096025;28;20289;-81
2021/01/11 12:11:49;;;;;;;22.20;17.77;;;4.80;99.90;;;;;;5105137;28;20279;-79
2021/01/11 12:14:15;;;;;;;23.90;18.17;;;4.80;99.90;;;;;;5114600;28;20201;-80
2021/01/11 12:16:42;;;;;;;26.57;18.33;;;4.80;99.90;;;;;;5103180;28;20198;-80
2021/01/11 12:19:08;;;;;;;26.53;19.53;;;4.80;99.90;;;;;;5111452;28;20202;-80
2021/01/11 12:21:38;;;;;;;24.67;19.03;;;4.80;99.90;;;;;;5114561;28;20198;-80
2021/01/11 12:24:06;;;;;;;27.03;19.10;;;4.80;99.90;;;;;;5098115;28;20198;-80
2021/01/11 12:26:40;;;;;;;27.77;19.17;;;4.90;99.90;;;;;;5094051;28;20205;-81
2021/01/11 12:29:08;;;;;;;26.77;19.77;;;5.00;99.90;;;;;;5094103;28;20198;-81
2021/01/11 12:31:34;;;;;;;26.73;19.67;;;5.00;99.90;;;;;;5101844;28;20206;-81
2021/01/11 12:34:01;;;;;;;23.37;19.60;;;5.10;99.90;;;;;;5100321;28;20194;-80
2021/01/11 12:36:29;;;;;;;25.47;19.57;;;5.10;99.90;;;;;;5108288;28;20292;-80
2021/01/11 12:38:56;;;;;;;27.37;19.97;;;5.10;99.90;;;;;;5094213;28;20284;-80
2021/01/11 12:41:23;;;;;;;26.60;20.27;;;5.20;99.90;;;;;;5108153;28;20230;-78
2021/01/11 12:43:50;;;;;;;26.07;20.63;;;5.30;99.90;;;;;;5104779;28;20609;-84